Time;durP1;ratioP1;P1;durP2;ratioP2;P2;SDS_P1;SDS_P2;PMS_P1;PMS_P2;Temp;Humidity;BMP_temperature;BMP_pressure;BME280_temperature;BME280_humidity;BME280_pressure;Samples;Min_cycle;Max_cycle;Signal;HPM_P1;HPM_P2
2022/01/01 00:01:26;;;;;;;78.63;31.40;;;3.70;99.90;;;;;;4998789;28;20176;-56
2022/01/01 00:03:52;;;;;;;37.10;15.67;;;3.70;99.90;;;;;;4996003;28;20184;-58
2022/01/01 00:06:18;;;;;;;34.17;12.07;;;3.70;99.90;;;;;;4997435;28;20259;-57
2022/01/01 00:08:44;;;;;;;86.90;16.37;;;3.70;99.90;;;;;;4999188;28;20856;-57
2022/01/01 00:11:10;;;;;;;47.17;19.20;;;3.60;99.90;;;;;;4998386;28;20502;-56
2022/01/01 00:13:35;;;;;;;111.27;34.67;;;3.60;99.90;;;;;;4997962;28;20184;-54
2022/01/01 00:16:01;;;;;;;125.70;40.07;;;3.50;99.90;;;;;;5006965;28;20197;-55
2022/01/01 00:18:26;;;;;;;206.40;63.00;;;3.50;99.90;;;;;;4998156;28;20628;-57
2022/01/01 00:20:52;;;;;;;220.70;76.90;;;3.50;99.90;;;;;;5000954;28;20196;-57
2022/01/01 00:23:18;;;;;;;227.07;76.27;;;3.50;99.90;;;;;;5001136;28;20212;-54
2022/01/01 00:25:43;;;;;;;143.13;47.10;;;3.50;99.90;;;;;;5000354;28;20220;-55
2022/01/01 00:28:10;;;;;;;95.50;25.47;;;3.50;99.90;;;;;;4995261;28;20188;-57
2022/01/01 00:30:36;;;;;;;108.43;19.30;;;3.50;99.90;;;;;;4997781;28;20601;-61
2022/01/01 00:33:03;;;;;;;52.47;15.90;;;3.50;99.90;;;;;;4993392;28;20446;-60
2022/01/01 00:35:29;;;;;;;91.07;19.03;;;3.50;99.90;;;;;;4994632;28;20293;-55
2022/01/01 00:37:54;;;;;;;212.53;23.40;;;3.40;99.90;;;;;;5004943;28;21048;-61
2022/01/01 00:40:20;;;;;;;137.77;24.30;;;3.50;99.90;;;;;;4998372;28;20251;-54
2022/01/01 00:42:46;;;;;;;224.73;27.97;;;3.40;99.90;;;;;;4994259;28;20534;-53
2022/01/01 00:45:11;;;;;;;171.27;24.70;;;3.50;99.90;;;;;;4996095;28;20209;-52
2022/01/01 00:47:37;;;;;;;148.93;23.60;;;3.40;99.90;;;;;;4995821;28;20269;-52
2022/01/01 00:50:03;;;;;;;129.20;19.10;;;3.40;99.90;;;;;;4997445;28;20208;-55
2022/01/01 00:52:29;;;;;;;110.40;15.77;;;3.40;99.90;;;;;;4996387;28;20691;-51
2022/01/01 00:54:54;;;;;;;93.17;17.87;;;3.30;99.90;;;;;;4990018;28;20500;-51
2022/01/01 00:57:20;;;;;;;67.23;17.10;;;3.30;99.90;;;;;;4999479;28;20191;-60
2022/01/01 00:59:45;;;;;;;108.33;19.40;;;3.20;99.90;;;;;;5025188;22;20232;-57
2022/01/01 01:02:11;;;;;;;266.33;24.97;;;3.10;99.90;;;;;;5019527;28;20207;-59
2022/01/01 01:04:37;;;;;;;75.97;21.57;;;3.10;99.90;;;;;;5016651;28;20181;-58
2022/01/01 01:07:02;;;;;;;149.83;23.77;;;3.10;99.90;;;;;;5017446;28;20187;-58
2022/01/01 01:09:28;;;;;;;74.47;20.80;;;3.10;99.90;;;;;;5027075;28;20184;-58
2022/01/01 01:11:55;;;;;;;210.07;23.80;;;3.00;99.90;;;;;;5022891;28;20183;-58
2022/01/01 01:14:23;;;;;;;166.33;22.20;;;3.10;99.90;;;;;;5023540;28;20458;-58
2022/01/01 01:16:50;;;;;;;88.83;18.90;;;3.10;99.90;;;;;;5015743;28;20437;-62
2022/01/01 01:19:17;;;;;;;97.63;18.60;;;3.00;99.90;;;;;;5025490;28;20518;-58
2022/01/01 01:21:44;;;;;;;61.10;17.83;;;3.00;99.90;;;;;;5023628;28;20747;-60
2022/01/01 01:24:11;;;;;;;73.47;17.30;;;3.00;99.90;;;;;;5028089;28;20500;-59
2022/01/01 01:26:36;;;;;;;82.17;16.10;;;3.00;99.90;;;;;;5025361;28;20456;-59
2022/01/01 01:29:04;;;;;;;118.87;18.50;;;3.00;99.90;;;;;;5025483;28;20430;-59
2022/01/01 01:31:30;;;;;;;82.20;16.10;;;3.00;99.90;;;;;;5025378;28;20198;-60
2022/01/01 01:33:56;;;;;;;107.90;18.67;;;3.00;99.90;;;;;;5029518;28;20932;-57
2022/01/01 01:36:21;;;;;;;74.03;15.33;;;3.00;99.90;;;;;;5030700;28;20455;-58
2022/01/01 01:38:47;;;;;;;348.83;22.67;;;3.00;99.90;;;;;;5020916;28;20740;-58
2022/01/01 01:41:13;;;;;;;73.60;14.70;;;3.00;99.90;;;;;;5018313;28;20226;-59
2022/01/01 01:43:38;;;;;;;130.33;15.57;;;2.90;99.90;;;;;;5015122;28;20553;-58
2022/01/01 01:46:05;;;;;;;133.10;15.83;;;2.90;99.90;;;;;;5014143;28;20175;-59
2022/01/01 01:48:37;;;;;;;94.77;14.27;;;2.90;99.90;;;;;;5030270;28;20220;-59
2022/01/01 01:51:03;;;;;;;99.93;14.03;;;2.90;99.90;;;;;;5016929;28;20856;-60
2022/01/01 01:53:29;;;;;;;87.87;13.73;;;2.90;99.90;;;;;;5017860;28;20440;-59
2022/01/01 01:55:57;;;;;;;183.27;16.90;;;2.90;99.90;;;;;;5021017;28;20457;-59
2022/01/01 01:58:23;;;;;;;138.23;16.87;;;2.90;99.90;;;;;;5022728;28;20519;-62
2022/01/01 02:03:33;;;;;;;76.87;13.10;;;2.80;99.90;;;;;;5032014;28;20436;-59
2022/01/01 02:05:59;;;;;;;113.87;14.07;;;2.80;99.90;;;;;;5015202;28;20801;-60
2022/01/01 02:08:26;;;;;;;121.73;15.63;;;2.80;99.90;;;;;;5024081;28;20181;-60
2022/01/01 02:10:52;;;;;;;99.13;13.57;;;2.80;99.90;;;;;;5025372;28;20458;-60
2022/01/01 02:13:31;;;;;;;82.67;13.20;;;2.80;99.90;;;;;;5020057;28;20441;-60
2022/01/01 02:16:14;;;;;;;31.33;11.70;;;2.80;99.90;;;;;;5021264;28;20491;-58
2022/01/01 02:18:42;;;;;;;76.73;11.60;;;2.70;99.90;;;;;;5027257;28;20954;-55
2022/01/01 02:21:08;;;;;;;96.37;13.83;;;2.70;99.90;;;;;;5037115;28;20456;-58
2022/01/01 02:23:34;;;;;;;67.83;12.20;;;2.70;99.90;;;;;;5039429;28;20953;-59
2022/01/01 02:25:59;;;;;;;111.00;12.90;;;2.70;99.90;;;;;;5024840;28;20211;-59
2022/01/01 02:28:25;;;;;;;83.13;13.10;;;2.70;99.90;;;;;;5034656;28;20202;-58
2022/01/01 02:30:51;;;;;;;140.47;16.20;;;2.70;99.90;;;;;;5043672;28;20605;-58
2022/01/01 02:33:18;;;;;;;59.83;12.67;;;2.70;99.90;;;;;;5025280;28;20183;-57
2022/01/01 02:35:43;;;;;;;54.33;11.07;;;2.70;99.90;;;;;;5030092;28;20194;-54
2022/01/01 02:38:09;;;;;;;32.00;11.50;;;2.70;99.90;;;;;;5024115;28;20940;-56
2022/01/01 02:40:36;;;;;;;42.87;12.20;;;2.70;99.90;;;;;;5028187;28;20207;-58
2022/01/01 02:43:02;;;;;;;30.17;11.30;;;2.70;99.90;;;;;;5029253;28;20167;-58
2022/01/01 02:45:29;;;;;;;85.90;12.10;;;2.70;99.90;;;;;;5033534;28;20470;-57
2022/01/01 02:47:55;;;;;;;53.30;12.93;;;2.70;99.90;;;;;;5029064;28;20298;-57
2022/01/01 02:50:20;;;;;;;47.53;13.10;;;2.70;99.90;;;;;;5029795;28;20515;-59
2022/01/01 02:52:47;;;;;;;63.23;11.37;;;2.60;99.90;;;;;;5030215;28;20425;-59
2022/01/01 02:55:13;;;;;;;74.27;13.30;;;2.60;99.90;;;;;;5028278;28;20202;-58
2022/01/01 02:57:38;;;;;;;41.07;12.57;;;2.60;99.90;;;;;;5030791;28;20460;-58
2022/01/01 03:00:05;;;;;;;34.83;12.30;;;2.70;99.90;;;;;;5026127;28;20690;-58
2022/01/01 03:02:31;;;;;;;60.13;13.33;;;2.60;99.90;;;;;;5012150;28;20172;-59
2022/01/01 03:04:57;;;;;;;81.17;14.43;;;2.60;99.90;;;;;;5026668;28;20465;-58
2022/01/01 03:07:22;;;;;;;102.03;13.20;;;2.50;99.90;;;;;;5029833;28;20176;-57
2022/01/01 03:09:48;;;;;;;31.00;10.30;;;2.50;99.90;;;;;;5025255;28;20707;-58
2022/01/01 03:12:15;;;;;;;70.13;14.00;;;2.40;99.90;;;;;;5028072;28;20551;-57
2022/01/01 03:14:41;;;;;;;89.57;13.67;;;2.40;99.90;;;;;;5026651;28;20709;-58
2022/01/01 03:17:07;;;;;;;91.77;15.73;;;2.30;99.90;;;;;;5026561;28;20460;-55
2022/01/01 03:19:34;;;;;;;86.43;17.40;;;2.30;99.90;;;;;;5005355;28;20175;-57
2022/01/01 03:22:00;;;;;;;74.53;16.67;;;2.30;99.90;;;;;;5028020;28;20976;-58
2022/01/01 03:24:26;;;;;;;186.43;17.77;;;2.30;99.90;;;;;;5026388;28;20438;-57
2022/01/01 03:26:52;;;;;;;93.97;15.53;;;2.20;99.90;;;;;;5030391;28;20422;-58
2022/01/01 03:29:18;;;;;;;127.70;16.20;;;2.30;99.90;;;;;;5010872;28;20784;-59
2022/01/01 03:31:44;;;;;;;81.80;14.37;;;2.20;99.90;;;;;;5011976;28;20437;-58
2022/01/01 03:34:10;;;;;;;119.50;13.80;;;2.20;99.90;;;;;;5029748;28;21108;-58
2022/01/01 03:36:35;;;;;;;93.40;14.20;;;2.10;99.90;;;;;;5028621;28;20269;-58
2022/01/01 03:39:02;;;;;;;73.83;11.83;;;2.10;99.90;;;;;;5029339;28;20415;-58
2022/01/01 03:41:28;;;;;;;145.97;14.57;;;2.10;99.90;;;;;;5026532;28;20198;-56
2022/01/01 03:43:54;;;;;;;102.30;13.17;;;2.10;99.90;;;;;;5030391;28;20413;-57
2022/01/01 03:46:19;;;;;;;45.23;11.67;;;2.00;99.90;;;;;;5027918;28;20627;-58
2022/01/01 03:48:45;;;;;;;57.67;10.63;;;2.00;99.90;;;;;;5010828;28;20589;-56
2022/01/01 03:51:10;;;;;;;65.97;12.90;;;2.00;99.90;;;;;;5029297;28;20223;-57
2022/01/01 03:53:39;;;;;;;92.37;12.87;;;2.00;99.90;;;;;;5028704;28;20186;-59
2022/01/01 03:56:05;;;;;;;92.40;13.13;;;2.00;99.90;;;;;;5010793;28;20208;-58
2022/01/01 03:58:30;;;;;;;65.40;11.40;;;2.00;99.90;;;;;;5024736;28;20426;-57
2022/01/01 04:00:56;;;;;;;99.07;14.00;;;2.00;99.90;;;;;;5028015;28;20234;-58
2022/01/01 04:03:21;;;;;;;94.60;12.70;;;2.00;99.90;;;;;;5010127;28;20175;-59
2022/01/01 04:05:47;;;;;;;34.40;10.90;;;1.90;99.90;;;;;;5029041;28;20209;-58
2022/01/01 04:08:13;;;;;;;81.07;12.13;;;1.90;99.90;;;;;;5009554;28;20231;-58
2022/01/01 04:10:40;;;;;;;43.80;10.97;;;1.90;99.90;;;;;;5028130;28;20250;-59
2022/01/01 04:13:08;;;;;;;83.80;13.60;;;1.90;99.90;;;;;;5026905;28;20541;-59
2022/01/01 04:15:35;;;;;;;44.90;12.17;;;1.90;99.90;;;;;;5026831;28;20472;-59
2022/01/01 04:18:07;;;;;;;57.77;11.90;;;1.80;99.90;;;;;;5023254;28;20949;-59
2022/01/01 04:20:33;;;;;;;65.17;11.93;;;1.80;99.90;;;;;;5008870;28;20552;-58
2022/01/01 04:22:59;;;;;;;54.63;12.13;;;1.80;99.90;;;;;;5028733;28;20504;-57
2022/01/01 04:25:26;;;;;;;91.63;13.13;;;1.80;99.90;;;;;;5028393;28;20240;-58
2022/01/01 04:27:55;;;;;;;83.13;12.80;;;1.80;99.90;;;;;;5025270;28;20445;-56
2022/01/01 04:30:21;;;;;;;114.03;12.83;;;1.80;99.90;;;;;;5025743;28;20444;-58
2022/01/01 04:32:48;;;;;;;45.63;11.03;;;1.80;99.90;;;;;;5028416;28;20437;-59
2022/01/01 04:35:14;;;;;;;68.17;9.90;;;1.80;99.90;;;;;;5027475;28;20460;-58
2022/01/01 04:37:40;;;;;;;167.20;12.20;;;1.80;99.90;;;;;;5028626;28;20429;-58
2022/01/01 04:40:07;;;;;;;81.03;11.03;;;1.80;99.90;;;;;;5027335;28;20989;-59
2022/01/01 04:42:33;;;;;;;128.33;11.67;;;1.80;99.90;;;;;;5028776;28;20421;-57
2022/01/01 04:44:59;;;;;;;111.20;9.43;;;1.80;99.90;;;;;;5026876;28;20465;-59
2022/01/01 04:47:25;;;;;;;47.37;8.40;;;1.80;99.90;;;;;;5032124;28;20242;-57
2022/01/01 04:49:51;;;;;;;188.40;12.80;;;1.80;99.90;;;;;;5029147;28;20205;-59
2022/01/01 04:52:17;;;;;;;64.77;9.10;;;1.80;99.90;;;;;;5028209;28;20433;-58
2022/01/01 04:54:44;;;;;;;168.50;11.87;;;1.80;99.90;;;;;;5029402;28;20694;-57
2022/01/01 04:57:10;;;;;;;197.07;12.83;;;1.80;99.90;;;;;;5027524;28;20164;-59
2022/01/01 04:59:36;;;;;;;98.80;9.97;;;1.80;99.90;;;;;;5027057;28;20427;-58
2022/01/01 05:02:03;;;;;;;86.27;9.53;;;1.70;99.90;;;;;;5007581;28;20431;-58
2022/01/01 05:04:29;;;;;;;26.73;8.30;;;1.70;99.90;;;;;;5026539;28;20466;-56
2022/01/01 05:06:55;;;;;;;91.37;10.83;;;1.70;99.90;;;;;;5026177;28;20542;-58
2022/01/01 05:09:21;;;;;;;84.80;8.63;;;1.60;99.90;;;;;;5026500;28;20444;-57
2022/01/01 05:11:47;;;;;;;122.33;11.60;;;1.60;99.90;;;;;;5007690;28;20200;-58
2022/01/01 05:14:14;;;;;;;81.67;9.47;;;1.50;99.90;;;;;;5024893;28;20495;-58
2022/01/01 05:16:40;;;;;;;91.70;9.13;;;1.50;99.90;;;;;;5025142;28;20940;-57
2022/01/01 05:19:06;;;;;;;77.97;9.97;;;1.40;99.90;;;;;;5027029;28;20908;-57
2022/01/01 05:21:34;;;;;;;72.47;9.40;;;1.40;99.90;;;;;;5025663;28;20491;-57
2022/01/01 05:24:00;;;;;;;72.87;8.57;;;1.40;99.90;;;;;;5031049;28;20170;-57
2022/01/01 05:26:26;;;;;;;22.73;7.97;;;1.40;99.90;;;;;;5026853;28;20421;-56
2022/01/01 05:28:51;;;;;;;43.40;7.10;;;1.40;99.90;;;;;;5027559;28;20442;-58
2022/01/01 05:31:19;;;;;;;70.07;9.73;;;1.40;99.90;;;;;;5024587;28;20205;-55
2022/01/01 05:33:48;;;;;;;52.57;9.93;;;1.40;99.90;;;;;;5022843;28;20465;-58
2022/01/01 05:36:15;;;;;;;44.77;8.73;;;1.40;99.90;;;;;;5026313;28;20461;-57
2022/01/01 05:38:42;;;;;;;33.03;7.70;;;1.40;99.90;;;;;;5026972;28;20507;-57
2022/01/01 05:41:08;;;;;;;38.23;7.30;;;1.40;99.90;;;;;;5030424;28;20461;-58
2022/01/01 05:43:34;;;;;;;115.13;9.40;;;1.40;99.90;;;;;;5012766;28;20433;-58
2022/01/01 05:46:00;;;;;;;19.30;6.80;;;1.40;99.90;;;;;;5030142;28;20193;-58
2022/01/01 05:48:26;;;;;;;42.80;7.93;;;1.30;99.90;;;;;;5028762;28;20908;-57
2022/01/01 05:50:52;;;;;;;38.90;6.87;;;1.40;99.90;;;;;;5028832;28;20483;-57
2022/01/01 05:53:19;;;;;;;48.67;7.30;;;1.30;99.90;;;;;;5010971;28;20264;-57
2022/01/01 05:55:45;;;;;;;50.63;6.10;;;1.40;99.90;;;;;;5029731;28;21042;-57
2022/01/01 05:58:11;;;;;;;75.47;7.23;;;1.40;99.90;;;;;;5027016;28;20715;-58
2022/01/01 06:00:36;;;;;;;27.03;6.00;;;1.40;99.90;;;;;;5024288;28;20472;-58
2022/01/01 06:03:02;;;;;;;39.10;6.97;;;1.30;99.90;;;;;;5029823;28;20182;-58
2022/01/01 06:05:28;;;;;;;32.30;5.60;;;1.30;99.90;;;;;;5028416;28;20621;-58
2022/01/01 06:07:55;;;;;;;102.33;8.00;;;1.30;99.90;;;;;;5026807;28;20434;-59
2022/01/01 06:10:22;;;;;;;56.37;7.20;;;1.30;99.90;;;;;;5028389;28;20464;-58
2022/01/01 06:12:48;;;;;;;35.90;5.80;;;1.20;99.90;;;;;;5031507;28;20428;-59
2022/01/01 06:15:14;;;;;;;73.93;6.63;;;1.30;99.90;;;;;;5010845;28;20487;-59
2022/01/01 06:17:40;;;;;;;90.57;7.07;;;1.30;99.90;;;;;;5010268;28;20956;-60
2022/01/01 06:20:06;;;;;;;36.40;5.90;;;1.30;99.90;;;;;;5028374;28;20198;-57
2022/01/01 06:22:31;;;;;;;115.37;9.07;;;1.30;99.90;;;;;;5030140;28;20638;-59
2022/01/01 06:24:57;;;;;;;67.53;6.57;;;1.30;99.90;;;;;;5025031;28;20520;-59
2022/01/01 06:27:23;;;;;;;14.80;4.60;;;1.30;99.90;;;;;;5029996;28;20193;-59
2022/01/01 06:29:50;;;;;;;40.53;5.40;;;1.30;99.90;;;;;;5027446;28;20204;-59
2022/01/01 06:32:15;;;;;;;42.90;6.07;;;1.30;99.90;;;;;;5029862;28;20219;-60
2022/01/01 06:34:41;;;;;;;73.83;7.03;;;1.30;99.90;;;;;;5028076;28;20464;-58
2022/01/01 06:37:07;;;;;;;41.87;6.63;;;1.40;99.90;;;;;;5029292;28;20268;-59
2022/01/01 06:39:32;;;;;;;40.07;5.50;;;1.40;99.90;;;;;;5027572;28;20182;-58
2022/01/01 06:41:58;;;;;;;67.43;7.17;;;1.40;99.90;;;;;;5028397;28;20178;-55
2022/01/01 06:44:23;;;;;;;88.83;8.07;;;1.30;99.90;;;;;;5025520;28;20201;-57
2022/01/01 06:46:49;;;;;;;83.40;6.97;;;1.30;99.90;;;;;;5029697;28;20263;-58
2022/01/01 06:49:15;;;;;;;125.63;8.00;;;1.20;99.90;;;;;;5029343;28;20182;-57
2022/01/01 06:51:40;;;;;;;113.43;8.80;;;1.10;99.90;;;;;;5029718;28;20209;-57
2022/01/01 06:54:06;;;;;;;56.97;6.13;;;1.00;99.90;;;;;;5027111;28;20183;-59
2022/01/01 06:56:32;;;;;;;72.80;6.77;;;1.00;99.90;;;;;;5029518;28;20174;-57
2022/01/01 06:58:57;;;;;;;90.87;7.27;;;1.00;99.90;;;;;;5026548;28;20174;-58
2022/01/01 07:01:23;;;;;;;48.57;6.00;;;1.00;99.90;;;;;;5009674;28;20301;-58
2022/01/01 07:03:49;;;;;;;12.63;5.20;;;1.00;99.90;;;;;;5028489;28;20183;-58
2022/01/01 07:06:14;;;;;;;20.77;5.83;;;1.00;99.90;;;;;;5027896;28;20653;-58
2022/01/01 07:08:40;;;;;;;115.17;9.80;;;1.10;99.90;;;;;;5027851;28;20640;-57
2022/01/01 07:11:06;;;;;;;40.10;6.20;;;1.10;99.90;;;;;;5029672;28;20730;-58
2022/01/01 07:13:32;;;;;;;87.30;8.40;;;1.10;99.90;;;;;;5028718;28;20186;-59
2022/01/01 07:15:58;;;;;;;41.33;5.87;;;1.10;99.90;;;;;;5029224;28;20534;-57
2022/01/01 07:18:23;;;;;;;58.77;6.60;;;1.10;99.90;;;;;;5028843;28;20669;-59
2022/01/01 07:20:49;;;;;;;128.33;10.60;;;1.00;99.90;;;;;;5025543;28;20201;-58
2022/01/01 07:23:15;;;;;;;88.47;6.63;;;1.00;99.90;;;;;;5026717;28;20194;-60
2022/01/01 07:25:41;;;;;;;62.73;6.70;;;1.00;99.90;;;;;;5027184;28;20217;-58
2022/01/01 07:28:07;;;;;;;66.30;6.20;;;0.90;99.90;;;;;;5026902;28;20197;-59
2022/01/01 07:30:33;;;;;;;51.23;5.40;;;0.90;99.90;;;;;;5025111;28;20451;-58
2022/01/01 07:32:58;;;;;;;58.20;5.70;;;0.80;99.90;;;;;;5023303;28;20437;-59
2022/01/01 07:35:24;;;;;;;84.77;6.43;;;0.80;99.90;;;;;;5026030;28;20218;-60
2022/01/01 07:37:52;;;;;;;23.37;5.17;;;0.80;99.90;;;;;;5026394;28;20671;-59
2022/01/01 07:40:19;;;;;;;40.37;5.43;;;0.80;99.90;;;;;;5024448;28;20434;-58
2022/01/01 07:42:45;;;;;;;17.70;4.60;;;0.80;99.90;;;;;;5027774;28;20431;-59
2022/01/01 07:45:12;;;;;;;16.27;4.30;;;0.80;99.90;;;;;;5008613;28;20497;-59
2022/01/01 07:47:38;;;;;;;72.33;6.20;;;0.80;99.90;;;;;;5029819;28;20918;-58
2022/01/01 07:50:05;;;;;;;9.13;4.50;;;0.80;99.90;;;;;;5027018;28;20500;-59
2022/01/01 07:52:32;;;;;;;17.47;3.93;;;0.80;99.90;;;;;;5025916;28;20440;-57
2022/01/01 07:54:57;;;;;;;18.07;4.50;;;0.80;99.90;;;;;;5028717;28;20454;-59
2022/01/01 07:57:23;;;;;;;62.43;6.37;;;0.80;99.90;;;;;;5029626;28;20494;-59
2022/01/01 07:59:48;;;;;;;119.90;7.17;;;0.80;99.90;;;;;;5026180;28;20291;-57
2022/01/01 08:02:14;;;;;;;46.57;5.07;;;0.80;99.90;;;;;;5011038;28;20178;-54
2022/01/01 08:04:40;;;;;;;19.40;6.80;;;0.80;99.90;;;;;;5024163;28;20563;-57
2022/01/01 08:07:05;;;;;;;35.80;5.60;;;0.90;99.90;;;;;;5029575;28;20269;-56
2022/01/01 08:09:31;;;;;;;14.67;5.57;;;0.90;99.90;;;;;;5024940;28;20668;-56
2022/01/01 08:11:56;;;;;;;23.93;5.07;;;0.90;99.90;;;;;;5026902;28;20182;-57
2022/01/01 08:14:23;;;;;;;80.33;5.60;;;1.00;99.90;;;;;;5027047;28;20261;-57
2022/01/01 08:16:59;;;;;;;11.03;4.13;;;1.00;99.90;;;;;;5027042;28;20232;-55
2022/01/01 08:19:25;;;;;;;14.70;5.50;;;1.00;99.90;;;;;;5023337;28;20448;-58
2022/01/01 08:21:52;;;;;;;10.07;4.57;;;1.00;99.90;;;;;;5026186;28;20565;-58
2022/01/01 08:24:18;;;;;;;8.60;4.20;;;1.00;99.90;;;;;;5024423;28;20968;-57
2022/01/01 08:26:43;;;;;;;31.30;5.07;;;1.10;99.90;;;;;;5021444;28;20443;-57
2022/01/01 08:29:09;;;;;;;11.53;5.50;;;1.10;99.90;;;;;;5024254;28;20627;-57
2022/01/01 08:31:35;;;;;;;32.30;5.77;;;1.10;99.90;;;;;;5025286;28;20729;-53
2022/01/01 08:34:01;;;;;;;37.40;5.43;;;1.10;99.90;;;;;;5024085;28;20440;-59
2022/01/01 08:36:26;;;;;;;17.10;4.73;;;1.00;99.90;;;;;;5026282;28;20209;-59
2022/01/01 08:38:52;;;;;;;7.43;4.67;;;1.00;99.90;;;;;;5024279;28;20199;-58
2022/01/01 08:41:17;;;;;;;16.70;4.70;;;1.00;99.90;;;;;;5027418;28;20704;-58
2022/01/01 08:43:43;;;;;;;5.40;4.43;;;1.10;99.90;;;;;;5028250;28;20181;-59
2022/01/01 08:46:09;;;;;;;8.40;3.73;;;1.10;99.90;;;;;;5024095;28;20586;-57
2022/01/01 08:48:34;;;;;;;6.43;4.57;;;1.20;99.90;;;;;;5000808;28;20205;-59
2022/01/01 08:51:17;;;;;;;5.80;4.57;;;1.30;99.90;;;;;;5019738;28;20226;-57
2022/01/01 08:53:44;;;;;;;11.80;4.60;;;1.40;99.90;;;;;;5011163;28;20726;-57
2022/01/01 08:56:10;;;;;;;6.60;4.50;;;1.40;99.90;;;;;;5004747;28;20472;-59
2022/01/01 08:58:36;;;;;;;4.53;4.13;;;1.50;99.90;;;;;;5001217;28;20549;-58
2022/01/01 09:01:02;;;;;;;6.20;4.53;;;1.50;99.90;;;;;;5022083;28;20676;-60
2022/01/01 09:03:28;;;;;;;6.70;4.93;;;1.50;99.90;;;;;;5019444;28;20175;-58
2022/01/01 09:05:54;;;;;;;11.27;4.90;;;1.50;99.90;;;;;;5015735;28;20821;-59
2022/01/01 09:08:20;;;;;;;5.97;4.10;;;1.50;99.90;;;;;;5017913;28;20187;-58
2022/01/01 09:10:45;;;;;;;12.00;4.60;;;1.60;99.90;;;;;;5020065;28;20231;-58
2022/01/01 09:13:11;;;;;;;5.60;4.30;;;1.60;99.90;;;;;;5022838;28;20236;-57
2022/01/01 09:15:37;;;;;;;4.57;4.17;;;1.60;99.90;;;;;;5023848;28;20221;-57
2022/01/01 09:18:02;;;;;;;5.00;4.43;;;1.70;99.90;;;;;;5017188;28;20187;-57
2022/01/01 09:20:28;;;;;;;4.50;3.80;;;1.80;99.90;;;;;;5022241;28;20193;-58
2022/01/01 09:22:54;;;;;;;5.10;4.30;;;1.80;99.90;;;;;;5029335;28;20184;-57
2022/01/01 09:25:20;;;;;;;5.50;4.33;;;1.90;99.90;;;;;;5024751;28;20984;-57
2022/01/01 09:27:46;;;;;;;4.63;4.13;;;1.90;99.90;;;;;;5030036;28;20194;-57
2022/01/01 09:30:12;;;;;;;4.23;3.83;;;2.00;99.90;;;;;;5021125;28;20559;-58
2022/01/01 09:32:38;;;;;;;4.30;3.90;;;2.10;99.90;;;;;;5009465;28;20212;-59
2022/01/01 09:35:04;;;;;;;4.90;4.40;;;2.10;99.90;;;;;;5019996;28;22183;-57
2022/01/01 09:37:32;;;;;;;4.27;3.60;;;2.20;99.90;;;;;;5018662;28;20187;-58
2022/01/01 09:39:59;;;;;;;4.13;3.77;;;2.30;99.90;;;;;;5006060;28;20457;-56
2022/01/01 09:42:24;;;;;;;6.93;3.90;;;2.30;99.90;;;;;;5007541;28;20434;-59
2022/01/01 09:44:52;;;;;;;4.80;4.10;;;2.40;99.90;;;;;;5021309;28;20443;-57
2022/01/01 09:47:18;;;;;;;3.87;3.53;;;2.50;99.90;;;;;;5011185;28;20188;-57
2022/01/01 09:49:44;;;;;;;4.77;3.60;;;2.60;99.90;;;;;;5009169;28;20553;-54
2022/01/01 09:52:12;;;;;;;4.47;3.90;;;2.70;99.90;;;;;;5012365;28;20480;-60
2022/01/01 09:54:37;;;;;;;5.13;4.63;;;2.80;99.90;;;;;;5005976;28;20208;-57
2022/01/01 09:57:03;;;;;;;6.10;4.50;;;3.00;99.90;;;;;;5010643;28;20469;-56
2022/01/01 09:59:30;;;;;;;3.70;3.30;;;3.00;99.90;;;;;;5008403;28;20230;-56
2022/01/01 10:01:56;;;;;;;3.90;3.50;;;3.10;99.90;;;;;;5010689;28;20453;-58
2022/01/01 10:04:22;;;;;;;4.00;3.20;;;3.30;99.90;;;;;;5009983;28;20445;-58
2022/01/01 10:07:02;;;;;;;5.87;3.80;;;3.40;99.90;;;;;;5011793;28;20217;-57
2022/01/01 10:09:37;;;;;;;3.27;2.97;;;3.50;99.90;;;;;;5004492;28;20274;-57
2022/01/01 10:12:07;;;;;;;7.63;3.53;;;3.60;99.90;;;;;;5009036;28;20463;-59
2022/01/01 10:14:41;;;;;;;6.17;4.90;;;3.70;99.90;;;;;;5009058;28;20544;-57
2022/01/01 10:17:30;;;;;;;4.50;4.10;;;3.90;99.90;;;;;;5026061;28;20533;-61
2022/01/01 10:19:56;;;;;;;5.43;4.93;;;4.00;99.90;;;;;;5030989;28;20418;-58
2022/01/01 10:22:24;;;;;;;5.83;3.93;;;4.10;99.90;;;;;;5026093;28;20450;-56
2022/01/01 10:27:59;;;;;;;4.80;4.13;;;4.30;99.90;;;;;;5022204;28;22114;-58
2022/01/01 10:30:39;;;;;;;7.43;5.63;;;4.40;99.90;;;;;;5026488;28;20468;-59
2022/01/01 10:33:11;;;;;;;11.30;5.90;;;4.60;99.90;;;;;;5010574;28;20430;-60
2022/01/01 10:35:52;;;;;;;9.87;7.17;;;4.70;99.90;;;;;;5023761;28;20454;-58
2022/01/01 10:38:20;;;;;;;9.40;5.90;;;4.90;99.90;;;;;;5005389;28;20426;-58
2022/01/01 10:40:46;;;;;;;7.80;5.50;;;5.00;99.90;;;;;;5007257;28;20576;-57
2022/01/01 10:43:15;;;;;;;11.00;7.30;;;5.10;99.90;;;;;;5020934;28;20808;-55
2022/01/01 10:45:47;;;;;;;18.67;9.13;;;5.30;99.90;;;;;;5022531;28;20442;-56
2022/01/01 10:48:38;;;;;;;12.93;8.27;;;5.40;99.90;;;;;;5028900;28;20458;-56
2022/01/01 10:51:08;;;;;;;7.47;5.07;;;5.50;99.90;;;;;;5040960;28;20446;-59
2022/01/01 10:53:35;;;;;;;8.23;5.03;;;5.70;99.90;;;;;;5006254;28;20461;-59
2022/01/01 10:56:05;;;;;;;7.27;5.20;;;5.90;99.90;;;;;;5024934;28;20457;-55
2022/01/01 10:58:35;;;;;;;8.27;5.33;;;6.00;99.90;;;;;;5018972;28;20795;-60
2022/01/01 11:01:07;;;;;;;7.03;4.77;;;6.10;99.90;;;;;;5020633;28;20470;-57
2022/01/01 11:03:45;;;;;;;7.27;4.93;;;6.30;99.90;;;;;;5002431;28;20454;-58
2022/01/01 11:06:18;;;;;;;5.33;4.50;;;6.40;99.90;;;;;;5024399;28;20904;-59
2022/01/01 11:08:45;;;;;;;7.80;5.07;;;6.50;99.90;;;;;;5022673;28;20530;-59
2022/01/01 11:11:13;;;;;;;4.30;3.90;;;6.60;99.90;;;;;;5022234;28;20457;-58
2022/01/01 11:13:39;;;;;;;5.40;3.80;;;6.80;99.90;;;;;;5020406;28;20424;-59
2022/01/01 11:16:06;;;;;;;7.10;4.43;;;6.90;99.90;;;;;;5016661;28;20458;-58
2022/01/01 11:18:33;;;;;;;5.97;4.67;;;7.10;99.90;;;;;;5026018;28;20454;-58
2022/01/01 11:21:01;;;;;;;6.17;4.37;;;7.20;99.90;;;;;;5020453;28;20458;-60
2022/01/01 11:23:27;;;;;;;5.73;4.27;;;7.30;99.90;;;;;;5022038;28;20474;-58
2022/01/01 11:25:56;;;;;;;6.00;4.60;;;7.40;99.90;;;;;;5022426;28;20495;-58
2022/01/01 11:28:22;;;;;;;6.03;4.70;;;7.50;99.90;;;;;;5003750;28;20431;-57
2022/01/01 11:30:51;;;;;;;8.27;5.17;;;7.50;99.90;;;;;;5002188;28;20532;-58
2022/01/01 11:33:20;;;;;;;6.00;4.33;;;7.60;99.90;;;;;;5024411;28;20194;-59
2022/01/01 11:35:54;;;;;;;6.60;5.07;;;7.80;99.90;;;;;;5015901;28;20451;-57
2022/01/01 11:38:20;;;;;;;5.57;4.50;;;7.90;99.90;;;;;;5018778;28;20418;-59
2022/01/01 11:40:45;;;;;;;5.17;4.67;;;7.90;99.90;;;;;;5024126;28;20442;-58
2022/01/01 11:43:51;;;;;;;5.33;4.40;;;8.00;99.90;;;;;;5020543;28;20278;-58
2022/01/01 11:46:33;;;;;;;6.57;5.00;;;8.00;99.90;;;;;;5022341;28;20230;-57
2022/01/01 11:49:01;;;;;;;7.07;4.90;;;7.90;99.90;;;;;;5023705;28;20988;-58
2022/01/01 11:51:56;;;;;;;8.10;5.77;;;7.90;99.90;;;;;;5026981;28;20995;-57
2022/01/01 11:54:36;;;;;;;7.13;5.20;;;7.90;99.90;;;;;;5022574;28;20441;-57
2022/01/01 11:57:24;;;;;;;6.37;5.07;;;7.90;99.90;;;;;;5016364;28;20427;-57
2022/01/01 12:00:00;;;;;;;8.13;5.17;;;7.90;99.90;;;;;;5002535;28;21017;-57
2022/01/01 12:02:26;;;;;;;6.20;5.20;;;7.80;99.90;;;;;;4991490;28;20448;-58
2022/01/01 12:05:06;;;;;;;9.13;6.80;;;7.70;99.90;;;;;;5005689;28;20428;-58
2022/01/01 12:07:43;;;;;;;7.23;5.10;;;7.60;99.90;;;;;;5001868;28;20184;-57
2022/01/01 12:10:09;;;;;;;6.13;5.50;;;7.60;99.90;;;;;;5000999;28;20458;-58
2022/01/01 12:12:53;;;;;;;9.53;5.60;;;7.60;99.90;;;;;;5005046;28;20492;-59
2022/01/01 12:15:23;;;;;;;6.60;5.50;;;7.60;99.90;;;;;;5017116;28;20238;-57
2022/01/01 12:17:53;;;;;;;6.53;5.67;;;7.60;99.90;;;;;;5025708;28;20425;-58
2022/01/01 12:20:26;;;;;;;8.27;5.70;;;7.70;99.90;;;;;;5015636;28;20657;-57
2022/01/01 12:22:52;;;;;;;8.27;5.70;;;7.70;99.90;;;;;;5005700;28;20569;-60
2022/01/01 12:25:27;;;;;;;8.70;6.27;;;7.70;99.90;;;;;;4989949;28;20971;-57
2022/01/01 12:28:00;;;;;;;10.50;6.43;;;7.80;99.90;;;;;;5010159;28;20441;-58
2022/01/01 12:30:33;;;;;;;8.17;5.63;;;7.90;99.90;;;;;;5009396;28;20449;-60
2022/01/01 12:32:59;;;;;;;10.20;6.80;;;7.90;99.90;;;;;;5025027;28;20461;-57
2022/01/01 12:35:39;;;;;;;9.50;6.57;;;8.00;99.90;;;;;;5010534;28;20449;-58
2022/01/01 12:38:10;;;;;;;7.10;6.07;;;8.10;99.90;;;;;;5027183;28;20430;-58
2022/01/01 12:40:54;;;;;;;8.83;6.07;;;8.10;99.90;;;;;;5029804;28;20484;-59
2022/01/01 12:43:21;;;;;;;8.90;5.97;;;8.20;99.90;;;;;;5031387;28;20497;-58
2022/01/01 12:45:50;;;;;;;8.67;5.63;;;8.30;99.90;;;;;;5024329;28;20434;-58
2022/01/01 12:48:18;;;;;;;7.63;5.20;;;8.40;99.90;;;;;;5026132;28;20460;-59
2022/01/01 12:50:43;;;;;;;7.47;5.50;;;8.50;99.90;;;;;;5001843;28;20883;-56